Terminal Aerodrome Forecast
Issued by NWS Newport/Morehead City, NC

Home | Current Version | Previous Version | Text Only | Print | Product List | Glossary Off
Versions: 1 2 3 4 5 6 7 8 9 10 11 12 13 14 15 16

000
FTUS42 KMHX 302320
TAFEWN
TAF
KEWN 302320Z 0100/0124 20010G15KT P6SM SCT060
     FM010300 20009KT P6SM VCSH BKN060
     FM010800 23005KT P6SM SCT060 BKN120
     FM011400 25008KT P6SM SCT250=

USA.gov is the U.S. government's official web portal to all federal, state and local government web resources and services.